createdAt,value
2022-10-02T00:04:20.706Z,13.27
2022-10-02T00:09:08.296Z,15.35
2022-10-02T00:13:59.396Z,14.25
2022-10-02T00:18:45.485Z,14.65
2022-10-02T00:23:36.556Z,12.07
2022-10-02T00:28:29.904Z,12.98
2022-10-02T00:33:25.384Z,14.48
2022-10-02T00:38:21.971Z,20.42
2022-10-02T00:43:16.197Z,18.48
2022-10-02T00:48:11.247Z,19.02
2022-10-02T00:53:11.852Z,16.73
2022-10-02T00:58:11.640Z,14.45
2022-10-02T01:03:13.575Z,16.13
2022-10-02T01:12:47.615Z,24.55
2022-10-02T01:17:36.227Z,17.42
2022-10-02T01:22:25.724Z,19.70
2022-10-02T01:27:13.704Z,17.58
2022-10-02T01:31:59.495Z,24.98
2022-10-02T01:36:44.886Z,19.85
2022-10-02T01:41:30.339Z,17.83
2022-10-02T01:46:32.731Z,13.20
2022-10-02T01:51:56.578Z,18.13
2022-10-02T01:56:52.110Z,23.58
2022-10-02T02:01:50.553Z,20.70
2022-10-02T02:06:45.315Z,16.90
2022-10-02T02:11:31.529Z,26.15
2022-10-02T02:16:28.149Z,20.05
2022-10-02T02:21:22.233Z,14.00
2022-10-02T02:26:12.618Z,14.05
2022-10-02T02:30:58.838Z,23.92
2022-10-02T02:35:48.280Z,17.50
2022-10-02T02:40:41.838Z,25.80
2022-10-02T02:45:30.240Z,18.58
2022-10-02T02:50:20.019Z,18.70
2022-10-02T02:55:09.409Z,13.88
2022-10-02T03:00:02.501Z,17.63
2022-10-02T03:04:50.265Z,13.55
2022-10-02T03:09:38.040Z,20.58
2022-10-02T03:14:36.788Z,17.05
2022-10-02T03:19:36.888Z,17.85
2022-10-02T03:24:29.826Z,15.10
2022-10-02T03:29:20.915Z,13.15
2022-10-02T03:34:07.556Z,21.13
2022-10-02T03:39:23.068Z,18.77
2022-10-02T03:44:02.830Z,17.77
2022-10-02T03:48:47.884Z,17.80
2022-10-02T03:53:35.576Z,18.50
2022-10-02T03:58:23.563Z,15.55
2022-10-02T04:03:14.779Z,12.40
2022-10-02T04:08:05.237Z,12.00
2022-10-02T04:12:55.030Z,13.70
2022-10-02T04:17:47.052Z,17.23
2022-10-02T04:22:37.794Z,19.98
2022-10-02T04:27:32.526Z,13.98
2022-10-02T04:32:20.341Z,13.15
2022-10-02T04:37:25.569Z,19.52
2022-10-02T04:42:25.576Z,14.30
2022-10-02T04:47:27.504Z,14.25
2022-10-02T04:52:42.594Z,16.05
2022-10-02T04:57:42.469Z,13.20
2022-10-02T05:02:40.844Z,14.55
2022-10-02T05:07:48.920Z,17.05
2022-10-02T05:12:47.898Z,14.88
2022-10-02T05:17:49.832Z,13.63
2022-10-02T05:23:03.915Z,21.95
2022-10-02T05:28:00.877Z,11.88
2022-10-02T05:33:04.062Z,13.00
2022-10-02T05:38:02.718Z,12.10
2022-10-02T05:42:58.014Z,12.80
2022-10-02T05:47:46.694Z,9.20
2022-10-02T05:52:39.258Z,10.15
2022-10-02T05:57:35.367Z,8.32
2022-10-02T06:02:27.126Z,13.32
2022-10-02T06:07:19.282Z,16.15
2022-10-02T06:12:09.180Z,11.55
2022-10-02T06:17:01.563Z,14.90
2022-10-02T06:21:52.886Z,10.70
2022-10-02T06:26:45.051Z,14.88
2022-10-02T06:36:55.521Z,14.30
2022-10-02T06:41:52.121Z,15.65
2022-10-02T06:46:50.612Z,14.70
2022-10-02T06:51:53.242Z,11.68
2022-10-02T06:56:52.710Z,12.68
2022-10-02T07:01:55.003Z,13.43
2022-10-02T07:06:57.180Z,14.75
2022-10-02T07:11:51.149Z,14.52
2022-10-02T07:16:53.904Z,15.43
2022-10-02T07:21:47.848Z,16.35
2022-10-02T07:26:52.207Z,24.90
2022-10-02T07:31:49.337Z,23.58
2022-10-02T07:36:48.763Z,14.90
2022-10-02T07:42:03.156Z,15.48
2022-10-02T07:46:58.068Z,14.13
2022-10-02T07:51:51.148Z,11.20
2022-10-02T07:56:39.261Z,15.07
2022-10-02T08:01:29.721Z,16.90
2022-10-02T08:06:16.127Z,16.60
2022-10-02T08:11:06.175Z,21.95
2022-10-02T08:15:56.626Z,26.40
2022-10-02T08:20:47.014Z,18.45
2022-10-02T08:25:39.732Z,27.13
2022-10-02T08:30:24.726Z,24.98
2022-10-02T08:35:15.871Z,17.73
2022-10-02T08:40:35.344Z,17.33
2022-10-02T08:45:53.063Z,13.30
2022-10-02T08:51:08.070Z,23.48
2022-10-02T08:56:08.041Z,16.27
2022-10-02T09:01:10.777Z,11.45
2022-10-02T09:06:20.009Z,12.20
2022-10-02T09:11:46.105Z,12.38
2022-10-02T09:16:39.897Z,8.50
2022-10-02T09:21:56.331Z,13.27
2022-10-02T09:27:05.486Z,16.70
2022-10-02T09:32:23.657Z,15.23
2022-10-02T09:37:47.027Z,8.75
2022-10-02T09:43:05.026Z,12.65
2022-10-02T09:48:30.503Z,8.98
2022-10-02T09:53:41.292Z,14.00
2022-10-02T09:58:58.149Z,13.20
2022-10-02T10:04:09.567Z,8.00
2022-10-02T10:09:39.404Z,12.02
2022-10-02T10:14:59.513Z,10.93
2022-10-02T10:20:26.251Z,9.23
2022-10-02T10:25:53.204Z,13.30
2022-10-02T10:31:21.199Z,6.40
2022-10-02T10:36:47.277Z,11.63
2022-10-02T10:42:01.338Z,8.07
2022-10-02T10:47:24.576Z,12.73
2022-10-02T10:52:19.604Z,7.22
2022-10-02T10:57:15.095Z,7.35
2022-10-02T11:02:21.535Z,7.93
2022-10-02T11:07:18.771Z,7.38
2022-10-02T11:12:39.306Z,9.48
2022-10-02T11:17:47.860Z,5.50
2022-10-02T11:23:10.431Z,11.43
2022-10-02T11:28:25.764Z,8.82
2022-10-02T11:33:50.815Z,10.25
2022-10-02T11:39:18.235Z,6.85
2022-10-02T11:44:17.748Z,9.27
2022-10-02T11:49:30.941Z,10.18
2022-10-02T11:54:28.636Z,5.80
2022-10-02T11:59:37.315Z,7.45
2022-10-02T12:04:36.998Z,8.50
2022-10-02T12:09:31.927Z,8.15
2022-10-02T12:14:31.412Z,8.90
2022-10-02T12:20:01.257Z,7.60
2022-10-02T12:25:13.177Z,7.05
2022-10-02T12:30:09.314Z,7.13
2022-10-02T12:35:07.054Z,7.88
2022-10-02T12:40:02.283Z,19.67
2022-10-02T12:45:21.782Z,6.93
2022-10-02T12:50:18.234Z,14.30
2022-10-02T12:55:33.475Z,7.63
2022-10-02T13:00:23.058Z,8.52
2022-10-02T13:05:46.770Z,7.45
2022-10-02T13:10:40.704Z,11.38
2022-10-02T13:15:40.820Z,8.00
2022-10-02T13:20:40.989Z,9.43
2022-10-02T13:25:45.568Z,9.25
2022-10-02T13:30:43.903Z,10.50
2022-10-02T13:35:51.645Z,10.75
2022-10-02T13:40:44.278Z,10.55
2022-10-02T13:45:41.728Z,8.35
2022-10-02T13:50:45.357Z,9.93
2022-10-02T13:55:33.503Z,10.00
2022-10-02T14:00:44.721Z,10.25
2022-10-02T14:05:44.497Z,9.70
2022-10-02T14:10:43.858Z,10.88
2022-10-02T14:15:39.224Z,10.10
2022-10-02T14:20:44.266Z,7.22
2022-10-02T14:25:42.638Z,8.63
2022-10-02T14:30:35.097Z,11.45
2022-10-02T14:35:35.795Z,12.98
2022-10-02T14:40:24.289Z,13.88
2022-10-02T14:45:33.750Z,10.40
2022-10-02T14:50:58.026Z,6.78
2022-10-02T14:56:03.899Z,5.70
2022-10-02T15:01:05.878Z,10.43
2022-10-02T15:06:05.577Z,12.40
2022-10-02T15:10:55.249Z,12.85
2022-10-02T15:15:44.301Z,11.00
2022-10-02T15:20:40.700Z,8.48
2022-10-02T15:25:38.375Z,8.88
2022-10-02T15:30:27.557Z,9.68
2022-10-02T15:35:25.387Z,9.57
2022-10-02T15:40:21.845Z,9.32
2022-10-02T15:45:17.461Z,11.27
2022-10-02T15:50:22.190Z,10.73
2022-10-02T15:55:21.560Z,13.70
2022-10-02T16:00:17.824Z,12.15
2022-10-02T16:05:23.859Z,12.32
2022-10-02T16:10:23.518Z,17.05
2022-10-02T16:15:20.838Z,8.27
2022-10-02T16:20:37.246Z,12.38
2022-10-02T16:25:42.120Z,12.07
2022-10-02T16:30:31.110Z,9.25
2022-10-02T16:35:28.529Z,10.43
2022-10-02T16:40:29.680Z,8.32
2022-10-02T16:45:39.052Z,15.37
2022-10-02T16:50:28.772Z,7.90
2022-10-02T16:55:28.345Z,8.32
2022-10-02T17:00:19.309Z,9.77
2022-10-02T17:05:14.168Z,12.35
2022-10-02T17:10:07.759Z,12.20
2022-10-02T17:15:01.226Z,13.70
2022-10-02T17:19:53.128Z,7.40
2022-10-02T17:24:45.564Z,13.68
2022-10-02T17:29:39.114Z,13.30
2022-10-02T17:34:32.996Z,12.95
2022-10-02T17:39:43.488Z,8.82
2022-10-02T17:44:46.015Z,11.93
2022-10-02T17:49:43.475Z,15.73
2022-10-02T17:55:05.486Z,8.75
2022-10-02T18:00:06.089Z,9.13
2022-10-02T18:05:14.393Z,11.07
2022-10-02T18:10:13.504Z,8.93
2022-10-02T18:15:19.078Z,9.23
2022-10-02T18:20:19.949Z,15.27
2022-10-02T18:25:27.647Z,9.48
2022-10-02T18:30:20.881Z,8.43
2022-10-02T18:35:28.596Z,13.70
2022-10-02T18:40:25.144Z,14.27
2022-10-02T18:45:27.397Z,7.57
2022-10-02T18:50:51.725Z,10.55
2022-10-02T18:56:03.360Z,10.93
2022-10-02T19:01:11.448Z,6.82
2022-10-02T19:06:09.492Z,12.88
2022-10-02T19:10:54.847Z,9.45
2022-10-02T19:15:40.296Z,9.30
2022-10-02T19:20:38.670Z,12.98
2022-10-02T19:25:28.583Z,11.55
2022-10-02T19:30:26.459Z,8.40
2022-10-02T19:35:19.377Z,7.80
2022-10-02T19:40:10.078Z,11.15
2022-10-02T19:45:04.835Z,7.75
2022-10-02T19:49:52.087Z,14.10
2022-10-02T19:54:41.029Z,15.85
2022-10-02T19:59:29.732Z,19.08
2022-10-02T20:04:20.720Z,14.60
2022-10-02T20:09:14.842Z,13.95
2022-10-02T20:14:05.172Z,13.88
2022-10-02T20:18:52.434Z,18.45
2022-10-02T20:23:45.467Z,23.98
2022-10-02T20:28:37.729Z,20.23
2022-10-02T20:33:27.142Z,22.30
2022-10-02T20:38:21.342Z,22.75
2022-10-02T20:43:15.413Z,22.85
2022-10-02T20:49:03.140Z,47.50
2022-10-02T20:54:18.121Z,40.03
2022-10-02T20:59:40.509Z,28.23
2022-10-02T21:04:58.175Z,26.00
2022-10-02T21:10:10.235Z,27.77
2022-10-02T21:20:33.437Z,25.08
2022-10-02T21:26:00.238Z,17.33
2022-10-02T21:30:57.292Z,32.80
2022-10-02T21:35:49.051Z,42.90
2022-10-02T21:46:14.949Z,23.38
2022-10-02T21:51:43.269Z,12.88
2022-10-02T21:56:55.449Z,22.90
2022-10-02T22:07:00.438Z,12.30
2022-10-02T22:16:47.632Z,10.90
2022-10-02T22:21:57.012Z,7.93
2022-10-02T22:27:06.970Z,7.88
2022-10-02T22:32:17.738Z,6.45
2022-10-02T22:37:30.242Z,10.88
2022-10-02T22:42:23.431Z,17.60
2022-10-02T22:47:13.008Z,16.98
2022-10-02T22:52:08.251Z,8.77
2022-10-02T22:57:09.037Z,8.13
2022-10-02T23:01:59.479Z,9.52
2022-10-02T23:06:49.407Z,9.48
2022-10-02T23:11:43.084Z,10.95
2022-10-02T23:16:39.598Z,11.20
2022-10-02T23:21:32.905Z,8.50
2022-10-02T23:26:29.855Z,17.77
2022-10-02T23:31:23.983Z,7.88
2022-10-02T23:36:26.288Z,6.75
2022-10-02T23:41:31.615Z,6.22
2022-10-02T23:46:26.108Z,9.98
2022-10-02T23:51:28.162Z,9.05
2022-10-02T23:56:41.065Z,9.65
